sensor_id;sensor_type;location;lat;lon;timestamp;P1;durP1;ratioP1;P2;durP2;ratioP2
80926;SDS011;70385;44.538;18.532;2023-06-14T00:01:09;34.22;;;12.30;;
80926;SDS011;70385;44.538;18.532;2023-06-14T00:03:35;27.35;;;11.07;;
80926;SDS011;70385;44.538;18.532;2023-06-14T00:06:01;24.05;;;11.00;;
80926;SDS011;70385;44.538;18.532;2023-06-14T00:08:29;18.80;;;9.15;;
80926;SDS011;70385;44.538;18.532;2023-06-14T00:10:56;26.00;;;10.50;;
80926;SDS011;70385;44.538;18.532;2023-06-14T00:13:27;25.10;;;9.13;;
80926;SDS011;70385;44.538;18.532;2023-06-14T00:15:54;18.30;;;8.52;;
80926;SDS011;70385;44.538;18.532;2023-06-14T00:18:20;28.40;;;9.82;;
80926;SDS011;70385;44.538;18.532;2023-06-14T00:20:52;27.48;;;12.43;;
80926;SDS011;70385;44.538;18.532;2023-06-14T00:23:18;30.20;;;10.70;;
80926;SDS011;70385;44.538;18.532;2023-06-14T00:25:44;22.00;;;10.60;;
80926;SDS011;70385;44.538;18.532;2023-06-14T00:28:10;33.17;;;13.00;;
80926;SDS011;70385;44.538;18.532;2023-06-14T00:30:36;31.70;;;12.65;;
80926;SDS011;70385;44.538;18.532;2023-06-14T00:33:02;26.10;;;11.60;;
80926;SDS011;70385;44.538;18.532;2023-06-14T00:35:31;29.75;;;12.43;;
80926;SDS011;70385;44.538;18.532;2023-06-14T00:37:57;23.45;;;10.07;;
80926;SDS011;70385;44.538;18.532;2023-06-14T00:40:25;30.83;;;12.88;;
80926;SDS011;70385;44.538;18.532;2023-06-14T00:42:52;23.17;;;10.85;;
80926;SDS011;70385;44.538;18.532;2023-06-14T00:45:19;23.83;;;11.30;;
80926;SDS011;70385;44.538;18.532;2023-06-14T00:47:46;26.70;;;10.93;;
80926;SDS011;70385;44.538;18.532;2023-06-14T00:50:23;31.50;;;11.18;;
80926;SDS011;70385;44.538;18.532;2023-06-14T00:52:50;22.38;;;10.98;;
80926;SDS011;70385;44.538;18.532;2023-06-14T00:55:17;30.73;;;11.52;;
80926;SDS011;70385;44.538;18.532;2023-06-14T00:57:43;22.52;;;11.93;;
80926;SDS011;70385;44.538;18.532;2023-06-14T01:00:09;25.38;;;11.52;;
80926;SDS011;70385;44.538;18.532;2023-06-14T01:02:38;24.17;;;11.23;;
80926;SDS011;70385;44.538;18.532;2023-06-14T01:05:07;23.13;;;11.27;;
80926;SDS011;70385;44.538;18.532;2023-06-14T01:13:37;23.85;;;12.82;;
80926;SDS011;70385;44.538;18.532;2023-06-14T01:16:12;19.33;;;11.98;;
80926;SDS011;70385;44.538;18.532;2023-06-14T01:18:39;25.10;;;11.25;;
80926;SDS011;70385;44.538;18.532;2023-06-14T01:21:25;25.75;;;12.15;;
80926;SDS011;70385;44.538;18.532;2023-06-14T01:26:20;23.08;;;11.55;;
80926;SDS011;70385;44.538;18.532;2023-06-14T01:28:50;28.85;;;10.75;;
80926;SDS011;70385;44.538;18.532;2023-06-14T01:31:22;19.20;;;11.00;;
80926;SDS011;70385;44.538;18.532;2023-06-14T01:33:49;22.83;;;11.32;;
80926;SDS011;70385;44.538;18.532;2023-06-14T01:36:19;22.75;;;10.90;;
80926;SDS011;70385;44.538;18.532;2023-06-14T01:38:47;28.63;;;10.18;;
80926;SDS011;70385;44.538;18.532;2023-06-14T01:41:17;20.73;;;11.13;;
80926;SDS011;70385;44.538;18.532;2023-06-14T01:43:47;22.17;;;10.00;;
80926;SDS011;70385;44.538;18.532;2023-06-14T01:46:16;17.23;;;9.88;;
80926;SDS011;70385;44.538;18.532;2023-06-14T01:48:50;20.13;;;10.63;;
80926;SDS011;70385;44.538;18.532;2023-06-14T01:51:16;20.67;;;10.77;;
80926;SDS011;70385;44.538;18.532;2023-06-14T01:53:42;23.30;;;11.70;;
80926;SDS011;70385;44.538;18.532;2023-06-14T01:56:11;24.33;;;11.70;;
80926;SDS011;70385;44.538;18.532;2023-06-14T01:58:37;22.55;;;10.95;;
80926;SDS011;70385;44.538;18.532;2023-06-14T02:01:05;19.98;;;10.25;;
80926;SDS011;70385;44.538;18.532;2023-06-14T02:03:34;20.45;;;11.63;;
80926;SDS011;70385;44.538;18.532;2023-06-14T02:06:07;24.27;;;10.23;;
80926;SDS011;70385;44.538;18.532;2023-06-14T02:08:33;16.77;;;9.45;;
80926;SDS011;70385;44.538;18.532;2023-06-14T02:11:00;17.25;;;9.68;;
80926;SDS011;70385;44.538;18.532;2023-06-14T02:13:26;14.43;;;9.10;;
80926;SDS011;70385;44.538;18.532;2023-06-14T02:15:52;15.68;;;8.93;;
80926;SDS011;70385;44.538;18.532;2023-06-14T02:18:22;17.40;;;9.77;;
80926;SDS011;70385;44.538;18.532;2023-06-14T02:20:49;17.80;;;8.88;;
80926;SDS011;70385;44.538;18.532;2023-06-14T02:23:16;16.77;;;9.07;;
80926;SDS011;70385;44.538;18.532;2023-06-14T02:25:45;17.83;;;8.93;;
80926;SDS011;70385;44.538;18.532;2023-06-14T02:28:11;17.70;;;10.10;;
80926;SDS011;70385;44.538;18.532;2023-06-14T02:30:38;16.02;;;10.23;;
80926;SDS011;70385;44.538;18.532;2023-06-14T02:33:04;14.40;;;9.77;;
80926;SDS011;70385;44.538;18.532;2023-06-14T02:35:34;16.92;;;10.38;;
80926;SDS011;70385;44.538;18.532;2023-06-14T02:38:01;13.00;;;8.65;;
80926;SDS011;70385;44.538;18.532;2023-06-14T02:40:27;14.18;;;9.68;;
80926;SDS011;70385;44.538;18.532;2023-06-14T02:42:56;12.30;;;8.07;;
80926;SDS011;70385;44.538;18.532;2023-06-14T02:45:22;17.40;;;10.05;;
80926;SDS011;70385;44.538;18.532;2023-06-14T02:47:49;15.60;;;9.48;;
80926;SDS011;70385;44.538;18.532;2023-06-14T02:50:15;17.13;;;9.80;;
80926;SDS011;70385;44.538;18.532;2023-06-14T02:52:42;19.92;;;10.88;;
80926;SDS011;70385;44.538;18.532;2023-06-14T02:55:10;23.75;;;11.32;;
80926;SDS011;70385;44.538;18.532;2023-06-14T02:57:37;16.98;;;10.35;;
80926;SDS011;70385;44.538;18.532;2023-06-14T03:00:03;16.42;;;9.32;;
80926;SDS011;70385;44.538;18.532;2023-06-14T03:02:33;17.23;;;9.73;;
80926;SDS011;70385;44.538;18.532;2023-06-14T03:05:07;20.23;;;10.85;;
80926;SDS011;70385;44.538;18.532;2023-06-14T03:07:35;14.10;;;9.95;;
80926;SDS011;70385;44.538;18.532;2023-06-14T03:10:08;12.30;;;8.63;;
80926;SDS011;70385;44.538;18.532;2023-06-14T03:12:40;17.25;;;10.45;;
80926;SDS011;70385;44.538;18.532;2023-06-14T03:15:08;18.20;;;10.75;;
80926;SDS011;70385;44.538;18.532;2023-06-14T03:17:43;16.77;;;10.50;;
80926;SDS011;70385;44.538;18.532;2023-06-14T03:20:11;17.95;;;11.60;;
80926;SDS011;70385;44.538;18.532;2023-06-14T03:22:37;16.27;;;9.70;;
80926;SDS011;70385;44.538;18.532;2023-06-14T03:25:06;18.15;;;11.27;;
80926;SDS011;70385;44.538;18.532;2023-06-14T03:27:36;17.25;;;10.50;;
80926;SDS011;70385;44.538;18.532;2023-06-14T03:30:04;19.23;;;10.45;;
80926;SDS011;70385;44.538;18.532;2023-06-14T03:32:31;15.65;;;10.68;;
80926;SDS011;70385;44.538;18.532;2023-06-14T03:35:02;18.20;;;11.15;;
80926;SDS011;70385;44.538;18.532;2023-06-14T03:37:29;14.13;;;9.30;;
80926;SDS011;70385;44.538;18.532;2023-06-14T03:39:55;18.13;;;10.48;;
80926;SDS011;70385;44.538;18.532;2023-06-14T03:42:24;15.00;;;9.90;;
80926;SDS011;70385;44.538;18.532;2023-06-14T03:44:52;22.50;;;11.07;;
80926;SDS011;70385;44.538;18.532;2023-06-14T03:47:22;21.77;;;11.55;;
80926;SDS011;70385;44.538;18.532;2023-06-14T03:49:49;16.95;;;10.88;;
80926;SDS011;70385;44.538;18.532;2023-06-14T03:52:15;18.42;;;10.88;;
80926;SDS011;70385;44.538;18.532;2023-06-14T03:54:47;23.08;;;12.43;;
80926;SDS011;70385;44.538;18.532;2023-06-14T03:57:14;17.55;;;9.65;;
80926;SDS011;70385;44.538;18.532;2023-06-14T03:59:41;21.65;;;11.75;;
80926;SDS011;70385;44.538;18.532;2023-06-14T04:02:07;12.93;;;10.27;;
80926;SDS011;70385;44.538;18.532;2023-06-14T04:04:36;17.63;;;8.98;;
80926;SDS011;70385;44.538;18.532;2023-06-14T04:07:03;12.23;;;8.75;;
80926;SDS011;70385;44.538;18.532;2023-06-14T04:09:33;10.40;;;8.85;;
80926;SDS011;70385;44.538;18.532;2023-06-14T04:11:59;14.80;;;9.55;;
80926;SDS011;70385;44.538;18.532;2023-06-14T04:14:26;14.23;;;8.60;;
80926;SDS011;70385;44.538;18.532;2023-06-14T04:16:52;16.00;;;9.65;;
80926;SDS011;70385;44.538;18.532;2023-06-14T04:19:20;17.33;;;8.23;;
80926;SDS011;70385;44.538;18.532;2023-06-14T04:21:47;18.70;;;8.82;;
80926;SDS011;70385;44.538;18.532;2023-06-14T04:24:15;14.93;;;8.10;;
80926;SDS011;70385;44.538;18.532;2023-06-14T04:26:46;11.60;;;7.05;;
80926;SDS011;70385;44.538;18.532;2023-06-14T04:29:18;8.70;;;6.90;;
80926;SDS011;70385;44.538;18.532;2023-06-14T04:31:58;9.90;;;7.10;;
80926;SDS011;70385;44.538;18.532;2023-06-14T04:34:26;16.58;;;7.47;;
80926;SDS011;70385;44.538;18.532;2023-06-14T04:36:57;9.50;;;6.97;;
80926;SDS011;70385;44.538;18.532;2023-06-14T04:39:44;11.95;;;7.43;;
80926;SDS011;70385;44.538;18.532;2023-06-14T04:42:12;12.88;;;6.88;;
80926;SDS011;70385;44.538;18.532;2023-06-14T04:44:42;12.45;;;7.60;;
80926;SDS011;70385;44.538;18.532;2023-06-14T04:47:10;15.50;;;8.30;;
80926;SDS011;70385;44.538;18.532;2023-06-14T04:49:42;16.45;;;7.90;;
80926;SDS011;70385;44.538;18.532;2023-06-14T04:52:12;17.88;;;9.88;;
80926;SDS011;70385;44.538;18.532;2023-06-14T04:54:44;25.25;;;12.13;;
80926;SDS011;70385;44.538;18.532;2023-06-14T04:57:16;22.25;;;12.75;;
80926;SDS011;70385;44.538;18.532;2023-06-14T04:59:50;31.38;;;13.95;;
80926;SDS011;70385;44.538;18.532;2023-06-14T05:02:23;24.42;;;11.75;;
80926;SDS011;70385;44.538;18.532;2023-06-14T05:04:50;25.08;;;10.65;;
80926;SDS011;70385;44.538;18.532;2023-06-14T05:07:16;23.90;;;11.95;;
80926;SDS011;70385;44.538;18.532;2023-06-14T05:09:42;26.20;;;11.07;;
80926;SDS011;70385;44.538;18.532;2023-06-14T05:12:11;31.60;;;11.02;;
80926;SDS011;70385;44.538;18.532;2023-06-14T05:14:37;25.60;;;11.02;;
80926;SDS011;70385;44.538;18.532;2023-06-14T05:17:04;30.65;;;10.90;;
80926;SDS011;70385;44.538;18.532;2023-06-14T05:19:31;30.35;;;11.27;;
80926;SDS011;70385;44.538;18.532;2023-06-14T05:21:58;25.55;;;12.45;;
80926;SDS011;70385;44.538;18.532;2023-06-14T05:24:26;24.95;;;11.95;;
80926;SDS011;70385;44.538;18.532;2023-06-14T05:26:52;23.10;;;10.35;;
80926;SDS011;70385;44.538;18.532;2023-06-14T05:29:18;27.25;;;10.93;;
80926;SDS011;70385;44.538;18.532;2023-06-14T05:31:44;14.82;;;8.65;;
80926;SDS011;70385;44.538;18.532;2023-06-14T05:34:10;24.98;;;9.02;;
80926;SDS011;70385;44.538;18.532;2023-06-14T05:36:36;16.25;;;9.15;;
80926;SDS011;70385;44.538;18.532;2023-06-14T05:39:02;15.23;;;8.32;;
80926;SDS011;70385;44.538;18.532;2023-06-14T05:41:32;15.20;;;8.52;;
80926;SDS011;70385;44.538;18.532;2023-06-14T05:43:57;16.17;;;8.90;;
80926;SDS011;70385;44.538;18.532;2023-06-14T05:46:29;12.68;;;7.93;;
80926;SDS011;70385;44.538;18.532;2023-06-14T05:48:55;16.67;;;7.95;;
80926;SDS011;70385;44.538;18.532;2023-06-14T05:51:22;13.63;;;8.27;;
80926;SDS011;70385;44.538;18.532;2023-06-14T05:53:52;11.18;;;7.95;;
80926;SDS011;70385;44.538;18.532;2023-06-14T05:56:19;14.18;;;7.70;;
80926;SDS011;70385;44.538;18.532;2023-06-14T05:58:46;13.32;;;8.25;;
80926;SDS011;70385;44.538;18.532;2023-06-14T06:01:14;9.43;;;7.10;;
80926;SDS011;70385;44.538;18.532;2023-06-14T06:03:41;15.18;;;7.20;;
80926;SDS011;70385;44.538;18.532;2023-06-14T06:06:13;16.85;;;7.20;;
80926;SDS011;70385;44.538;18.532;2023-06-14T06:08:41;10.73;;;7.88;;
80926;SDS011;70385;44.538;18.532;2023-06-14T06:11:07;10.85;;;6.70;;
80926;SDS011;70385;44.538;18.532;2023-06-14T06:13:37;11.50;;;7.35;;
80926;SDS011;70385;44.538;18.532;2023-06-14T06:16:06;10.68;;;6.65;;
80926;SDS011;70385;44.538;18.532;2023-06-14T06:18:34;10.07;;;7.40;;
80926;SDS011;70385;44.538;18.532;2023-06-14T06:21:02;10.27;;;7.15;;
80926;SDS011;70385;44.538;18.532;2023-06-14T06:23:33;12.30;;;6.65;;
80926;SDS011;70385;44.538;18.532;2023-06-14T06:26:01;16.80;;;7.50;;
80926;SDS011;70385;44.538;18.532;2023-06-14T06:28:26;10.73;;;7.35;;
80926;SDS011;70385;44.538;18.532;2023-06-14T06:30:52;12.13;;;7.13;;
80926;SDS011;70385;44.538;18.532;2023-06-14T06:33:18;14.90;;;8.40;;
80926;SDS011;70385;44.538;18.532;2023-06-14T06:35:46;12.95;;;7.82;;
80926;SDS011;70385;44.538;18.532;2023-06-14T06:38:13;12.50;;;6.97;;
80926;SDS011;70385;44.538;18.532;2023-06-14T06:40:39;10.40;;;6.35;;
80926;SDS011;70385;44.538;18.532;2023-06-14T06:43:05;12.48;;;6.60;;
80926;SDS011;70385;44.538;18.532;2023-06-14T06:45:39;12.98;;;7.47;;
80926;SDS011;70385;44.538;18.532;2023-06-14T06:48:05;9.27;;;6.20;;
80926;SDS011;70385;44.538;18.532;2023-06-14T06:50:31;11.68;;;6.57;;
80926;SDS011;70385;44.538;18.532;2023-06-14T06:52:59;7.35;;;5.78;;
80926;SDS011;70385;44.538;18.532;2023-06-14T06:55:25;12.05;;;7.40;;
80926;SDS011;70385;44.538;18.532;2023-06-14T06:57:51;8.20;;;6.13;;
80926;SDS011;70385;44.538;18.532;2023-06-14T07:00:19;13.77;;;6.90;;
80926;SDS011;70385;44.538;18.532;2023-06-14T07:02:48;11.57;;;5.45;;
80926;SDS011;70385;44.538;18.532;2023-06-14T07:05:14;9.30;;;5.90;;
80926;SDS011;70385;44.538;18.532;2023-06-14T07:07:40;8.25;;;5.65;;
80926;SDS011;70385;44.538;18.532;2023-06-14T07:10:06;5.68;;;4.95;;
80926;SDS011;70385;44.538;18.532;2023-06-14T07:12:32;8.52;;;5.93;;
80926;SDS011;70385;44.538;18.532;2023-06-14T07:15:02;9.15;;;5.53;;
80926;SDS011;70385;44.538;18.532;2023-06-14T07:17:30;10.02;;;5.50;;
80926;SDS011;70385;44.538;18.532;2023-06-14T07:19:56;8.18;;;5.40;;
80926;SDS011;70385;44.538;18.532;2023-06-14T07:22:22;12.23;;;6.20;;
80926;SDS011;70385;44.538;18.532;2023-06-14T07:24:48;12.13;;;6.28;;
80926;SDS011;70385;44.538;18.532;2023-06-14T07:27:16;11.70;;;6.88;;
80926;SDS011;70385;44.538;18.532;2023-06-14T07:29:43;8.70;;;6.00;;
80926;SDS011;70385;44.538;18.532;2023-06-14T07:32:09;14.95;;;6.55;;
80926;SDS011;70385;44.538;18.532;2023-06-14T07:34:35;14.63;;;6.60;;
80926;SDS011;70385;44.538;18.532;2023-06-14T07:37:02;11.00;;;5.72;;
80926;SDS011;70385;44.538;18.532;2023-06-14T07:39:31;9.52;;;5.88;;
80926;SDS011;70385;44.538;18.532;2023-06-14T07:41:58;8.23;;;5.55;;
80926;SDS011;70385;44.538;18.532;2023-06-14T07:44:24;6.63;;;5.30;;
80926;SDS011;70385;44.538;18.532;2023-06-14T07:46:49;9.93;;;4.97;;
80926;SDS011;70385;44.538;18.532;2023-06-14T07:49:15;8.93;;;6.00;;
80926;SDS011;70385;44.538;18.532;2023-06-14T07:51:45;7.25;;;5.53;;
80926;SDS011;70385;44.538;18.532;2023-06-14T07:54:13;10.63;;;7.07;;
80926;SDS011;70385;44.538;18.532;2023-06-14T07:56:39;10.45;;;5.95;;
80926;SDS011;70385;44.538;18.532;2023-06-14T07:59:05;12.38;;;6.07;;
80926;SDS011;70385;44.538;18.532;2023-06-14T08:01:31;8.82;;;6.03;;
80926;SDS011;70385;44.538;18.532;2023-06-14T08:03:58;10.73;;;5.53;;
80926;SDS011;70385;44.538;18.532;2023-06-14T08:06:25;12.63;;;6.07;;
80926;SDS011;70385;44.538;18.532;2023-06-14T08:08:51;9.00;;;5.80;;
80926;SDS011;70385;44.538;18.532;2023-06-14T08:11:17;16.73;;;10.25;;
80926;SDS011;70385;44.538;18.532;2023-06-14T08:13:46;17.08;;;8.02;;
80926;SDS011;70385;44.538;18.532;2023-06-14T08:16:14;15.55;;;9.10;;
80926;SDS011;70385;44.538;18.532;2023-06-14T08:18:40;11.98;;;7.75;;
80926;SDS011;70385;44.538;18.532;2023-06-14T08:21:06;10.18;;;6.03;;
80926;SDS011;70385;44.538;18.532;2023-06-14T08:23:34;7.65;;;5.25;;
80926;SDS011;70385;44.538;18.532;2023-06-14T08:26:02;6.25;;;4.15;;
80926;SDS011;70385;44.538;18.532;2023-06-14T08:28:29;8.75;;;4.88;;
80926;SDS011;70385;44.538;18.532;2023-06-14T08:30:55;8.90;;;4.90;;
80926;SDS011;70385;44.538;18.532;2023-06-14T08:33:21;8.82;;;5.45;;
80926;SDS011;70385;44.538;18.532;2023-06-14T08:35:50;6.35;;;4.63;;
80926;SDS011;70385;44.538;18.532;2023-06-14T08:38:16;13.02;;;5.20;;
80926;SDS011;70385;44.538;18.532;2023-06-14T08:40:43;7.85;;;4.53;;
80926;SDS011;70385;44.538;18.532;2023-06-14T08:43:15;11.52;;;5.38;;
80926;SDS011;70385;44.538;18.532;2023-06-14T08:45:41;7.43;;;5.65;;
80926;SDS011;70385;44.538;18.532;2023-06-14T08:48:07;6.90;;;5.90;;
80926;SDS011;70385;44.538;18.532;2023-06-14T08:50:34;9.40;;;6.05;;
80926;SDS011;70385;44.538;18.532;2023-06-14T08:53:11;8.52;;;6.00;;
80926;SDS011;70385;44.538;18.532;2023-06-14T08:55:45;10.02;;;6.70;;
80926;SDS011;70385;44.538;18.532;2023-06-14T08:58:10;12.68;;;6.72;;
80926;SDS011;70385;44.538;18.532;2023-06-14T09:00:42;12.60;;;6.38;;
80926;SDS011;70385;44.538;18.532;2023-06-14T09:03:09;9.77;;;6.80;;
80926;SDS011;70385;44.538;18.532;2023-06-14T09:05:40;10.15;;;6.68;;
80926;SDS011;70385;44.538;18.532;2023-06-14T09:08:12;15.32;;;7.95;;
80926;SDS011;70385;44.538;18.532;2023-06-14T09:10:39;12.35;;;7.68;;
80926;SDS011;70385;44.538;18.532;2023-06-14T09:13:06;11.63;;;7.43;;
80926;SDS011;70385;44.538;18.532;2023-06-14T09:15:35;18.02;;;8.80;;
80926;SDS011;70385;44.538;18.532;2023-06-14T09:18:04;12.57;;;7.82;;
80926;SDS011;70385;44.538;18.532;2023-06-14T09:20:36;17.23;;;8.23;;
80926;SDS011;70385;44.538;18.532;2023-06-14T09:23:06;18.60;;;8.15;;
80926;SDS011;70385;44.538;18.532;2023-06-14T09:25:41;17.55;;;8.18;;
80926;SDS011;70385;44.538;18.532;2023-06-14T09:28:10;19.88;;;8.63;;
80926;SDS011;70385;44.538;18.532;2023-06-14T09:30:38;20.98;;;8.75;;
80926;SDS011;70385;44.538;18.532;2023-06-14T09:33:04;18.98;;;9.15;;
80926;SDS011;70385;44.538;18.532;2023-06-14T09:35:31;22.58;;;9.73;;
80926;SDS011;70385;44.538;18.532;2023-06-14T09:38:00;22.48;;;8.65;;
80926;SDS011;70385;44.538;18.532;2023-06-14T09:40:26;15.50;;;8.85;;
80926;SDS011;70385;44.538;18.532;2023-06-14T09:42:53;18.05;;;9.23;;
80926;SDS011;70385;44.538;18.532;2023-06-14T09:45:23;16.73;;;8.52;;
80926;SDS011;70385;44.538;18.532;2023-06-14T09:47:56;17.90;;;8.13;;
80926;SDS011;70385;44.538;18.532;2023-06-14T09:50:23;15.30;;;8.70;;
80926;SDS011;70385;44.538;18.532;2023-06-14T09:52:50;12.55;;;7.95;;
80926;SDS011;70385;44.538;18.532;2023-06-14T09:55:27;17.70;;;8.80;;
80926;SDS011;70385;44.538;18.532;2023-06-14T09:57:56;22.27;;;8.48;;
80926;SDS011;70385;44.538;18.532;2023-06-14T10:00:25;16.85;;;8.80;;
80926;SDS011;70385;44.538;18.532;2023-06-14T10:02:54;20.27;;;8.77;;
80926;SDS011;70385;44.538;18.532;2023-06-14T10:05:26;18.25;;;9.07;;
80926;SDS011;70385;44.538;18.532;2023-06-14T10:08:04;21.02;;;8.50;;
80926;SDS011;70385;44.538;18.532;2023-06-14T10:10:35;23.10;;;8.25;;
80926;SDS011;70385;44.538;18.532;2023-06-14T10:13:07;18.60;;;9.20;;
80926;SDS011;70385;44.538;18.532;2023-06-14T10:18:31;16.63;;;9.05;;
80926;SDS011;70385;44.538;18.532;2023-06-14T10:23:47;15.48;;;9.00;;
80926;SDS011;70385;44.538;18.532;2023-06-14T10:26:22;17.60;;;8.77;;
80926;SDS011;70385;44.538;18.532;2023-06-14T10:29:22;20.75;;;10.45;;
80926;SDS011;70385;44.538;18.532;2023-06-14T10:31:44;18.75;;;10.68;;
80926;SDS011;70385;44.538;18.532;2023-06-14T10:34:29;23.13;;;11.65;;
80926;SDS011;70385;44.538;18.532;2023-06-14T10:37:10;22.20;;;12.38;;
80926;SDS011;70385;44.538;18.532;2023-06-14T10:39:40;22.77;;;11.90;;
80926;SDS011;70385;44.538;18.532;2023-06-14T10:42:07;27.73;;;13.30;;
80926;SDS011;70385;44.538;18.532;2023-06-14T10:44:41;24.88;;;13.77;;
80926;SDS011;70385;44.538;18.532;2023-06-14T10:50:06;31.55;;;16.02;;
80926;SDS011;70385;44.538;18.532;2023-06-14T10:52:38;32.17;;;16.80;;
80926;SDS011;70385;44.538;18.532;2023-06-14T10:55:26;32.15;;;15.75;;
80926;SDS011;70385;44.538;18.532;2023-06-14T10:58:00;32.87;;;16.10;;
80926;SDS011;70385;44.538;18.532;2023-06-14T11:00:27;28.92;;;14.68;;
80926;SDS011;70385;44.538;18.532;2023-06-14T11:05:58;33.67;;;16.67;;
80926;SDS011;70385;44.538;18.532;2023-06-14T11:11:17;32.67;;;18.17;;
80926;SDS011;70385;44.538;18.532;2023-06-14T11:13:51;33.03;;;16.98;;
80926;SDS011;70385;44.538;18.532;2023-06-14T11:16:17;29.85;;;15.25;;
80926;SDS011;70385;44.538;18.532;2023-06-14T11:18:51;24.58;;;13.73;;
80926;SDS011;70385;44.538;18.532;2023-06-14T11:21:20;32.50;;;16.35;;
80926;SDS011;70385;44.538;18.532;2023-06-14T11:24:00;30.05;;;15.25;;
80926;SDS011;70385;44.538;18.532;2023-06-14T11:26:27;8.15;;;4.75;;
80926;SDS011;70385;44.538;18.532;2023-06-14T11:29:04;5.13;;;3.20;;
80926;SDS011;70385;44.538;18.532;2023-06-14T11:31:32;6.10;;;2.95;;
80926;SDS011;70385;44.538;18.532;2023-06-14T11:33:59;5.90;;;2.72;;
80926;SDS011;70385;44.538;18.532;2023-06-14T11:36:29;6.32;;;3.58;;
80926;SDS011;70385;44.538;18.532;2023-06-14T11:39:02;10.07;;;4.25;;
80926;SDS011;70385;44.538;18.532;2023-06-14T11:41:45;6.15;;;4.00;;
80926;SDS011;70385;44.538;18.532;2023-06-14T11:44:16;3.72;;;2.38;;
80926;SDS011;70385;44.538;18.532;2023-06-14T11:46:42;6.15;;;3.30;;
80926;SDS011;70385;44.538;18.532;2023-06-14T11:49:08;6.03;;;2.88;;
80926;SDS011;70385;44.538;18.532;2023-06-14T11:51:35;4.38;;;2.58;;
80926;SDS011;70385;44.538;18.532;2023-06-14T11:54:04;5.00;;;2.42;;
80926;SDS011;70385;44.538;18.532;2023-06-14T11:56:32;5.15;;;2.67;;
80926;SDS011;70385;44.538;18.532;2023-06-14T11:59:02;2.80;;;2.40;;
80926;SDS011;70385;44.538;18.532;2023-06-14T12:01:31;4.75;;;2.47;;
80926;SDS011;70385;44.538;18.532;2023-06-14T12:03:58;4.15;;;2.50;;
80926;SDS011;70385;44.538;18.532;2023-06-14T12:06:26;4.88;;;2.80;;
80926;SDS011;70385;44.538;18.532;2023-06-14T12:08:58;4.22;;;2.58;;
80926;SDS011;70385;44.538;18.532;2023-06-14T12:11:35;4.40;;;3.15;;
80926;SDS011;70385;44.538;18.532;2023-06-14T12:14:03;4.72;;;2.40;;
80926;SDS011;70385;44.538;18.532;2023-06-14T12:16:38;9.00;;;2.60;;
80926;SDS011;70385;44.538;18.532;2023-06-14T12:19:09;5.75;;;2.95;;
80926;SDS011;70385;44.538;18.532;2023-06-14T12:21:38;4.82;;;2.67;;
80926;SDS011;70385;44.538;18.532;2023-06-14T12:24:11;3.72;;;2.60;;
80926;SDS011;70385;44.538;18.532;2023-06-14T12:26:39;3.25;;;2.70;;
80926;SDS011;70385;44.538;18.532;2023-06-14T12:29:06;4.05;;;2.65;;
80926;SDS011;70385;44.538;18.532;2023-06-14T12:31:33;7.20;;;3.08;;
80926;SDS011;70385;44.538;18.532;2023-06-14T12:33:59;4.13;;;3.28;;
80926;SDS011;70385;44.538;18.532;2023-06-14T12:36:28;4.20;;;3.15;;
80926;SDS011;70385;44.538;18.532;2023-06-14T12:38:55;4.78;;;2.85;;
80926;SDS011;70385;44.538;18.532;2023-06-14T12:41:21;5.25;;;2.90;;
80926;SDS011;70385;44.538;18.532;2023-06-14T12:43:49;8.23;;;3.30;;
80926;SDS011;70385;44.538;18.532;2023-06-14T12:46:16;4.78;;;3.15;;
80926;SDS011;70385;44.538;18.532;2023-06-14T12:48:42;7.03;;;3.35;;
80926;SDS011;70385;44.538;18.532;2023-06-14T12:51:08;6.88;;;3.03;;
80926;SDS011;70385;44.538;18.532;2023-06-14T12:53:34;6.40;;;3.20;;
80926;SDS011;70385;44.538;18.532;2023-06-14T12:56:00;4.22;;;2.65;;
80926;SDS011;70385;44.538;18.532;2023-06-14T12:58:26;4.18;;;2.78;;
80926;SDS011;70385;44.538;18.532;2023-06-14T13:00:52;4.13;;;2.97;;
80926;SDS011;70385;44.538;18.532;2023-06-14T13:03:18;5.47;;;2.97;;
80926;SDS011;70385;44.538;18.532;2023-06-14T13:05:44;6.65;;;3.50;;
80926;SDS011;70385;44.538;18.532;2023-06-14T13:08:11;4.40;;;2.92;;
80926;SDS011;70385;44.538;18.532;2023-06-14T13:10:45;5.20;;;3.20;;
80926;SDS011;70385;44.538;18.532;2023-06-14T13:13:11;6.68;;;3.60;;
80926;SDS011;70385;44.538;18.532;2023-06-14T13:15:38;5.32;;;3.10;;
80926;SDS011;70385;44.538;18.532;2023-06-14T13:18:07;5.20;;;3.42;;
80926;SDS011;70385;44.538;18.532;2023-06-14T13:20:34;6.85;;;3.22;;
80926;SDS011;70385;44.538;18.532;2023-06-14T13:23:00;7.53;;;3.30;;
80926;SDS011;70385;44.538;18.532;2023-06-14T13:25:27;4.32;;;3.10;;
80926;SDS011;70385;44.538;18.532;2023-06-14T13:27:53;4.15;;;3.08;;
80926;SDS011;70385;44.538;18.532;2023-06-14T13:30:20;5.57;;;3.15;;
80926;SDS011;70385;44.538;18.532;2023-06-14T13:32:49;6.80;;;3.45;;
80926;SDS011;70385;44.538;18.532;2023-06-14T13:35:19;9.25;;;3.38;;
80926;SDS011;70385;44.538;18.532;2023-06-14T13:37:46;4.80;;;3.05;;
80926;SDS011;70385;44.538;18.532;2023-06-14T13:40:12;4.95;;;2.85;;
80926;SDS011;70385;44.538;18.532;2023-06-14T13:42:38;5.07;;;3.15;;
80926;SDS011;70385;44.538;18.532;2023-06-14T13:45:07;3.55;;;2.80;;
80926;SDS011;70385;44.538;18.532;2023-06-14T13:47:40;7.45;;;3.22;;
80926;SDS011;70385;44.538;18.532;2023-06-14T13:50:08;6.60;;;3.47;;
80926;SDS011;70385;44.538;18.532;2023-06-14T13:52:34;4.57;;;3.13;;
80926;SDS011;70385;44.538;18.532;2023-06-14T13:55:02;5.18;;;3.30;;
80926;SDS011;70385;44.538;18.532;2023-06-14T13:57:28;3.47;;;2.85;;
80926;SDS011;70385;44.538;18.532;2023-06-14T13:59:56;5.82;;;3.10;;
80926;SDS011;70385;44.538;18.532;2023-06-14T14:02:27;7.97;;;3.35;;
80926;SDS011;70385;44.538;18.532;2023-06-14T14:04:58;4.75;;;3.33;;
80926;SDS011;70385;44.538;18.532;2023-06-14T14:07:27;5.38;;;3.33;;
80926;SDS011;70385;44.538;18.532;2023-06-14T14:09:58;7.25;;;3.55;;
80926;SDS011;70385;44.538;18.532;2023-06-14T14:12:29;9.18;;;3.88;;
80926;SDS011;70385;44.538;18.532;2023-06-14T14:14:56;4.63;;;2.78;;
80926;SDS011;70385;44.538;18.532;2023-06-14T14:17:23;6.80;;;3.28;;
80926;SDS011;70385;44.538;18.532;2023-06-14T14:19:49;5.18;;;3.13;;
80926;SDS011;70385;44.538;18.532;2023-06-14T14:22:18;5.18;;;3.03;;
80926;SDS011;70385;44.538;18.532;2023-06-14T14:24:47;6.38;;;3.25;;
80926;SDS011;70385;44.538;18.532;2023-06-14T14:27:14;5.05;;;3.20;;
80926;SDS011;70385;44.538;18.532;2023-06-14T14:29:43;6.38;;;3.10;;
80926;SDS011;70385;44.538;18.532;2023-06-14T14:32:09;6.68;;;3.20;;
80926;SDS011;70385;44.538;18.532;2023-06-14T14:34:41;11.40;;;3.80;;
80926;SDS011;70385;44.538;18.532;2023-06-14T14:37:09;6.60;;;3.80;;
80926;SDS011;70385;44.538;18.532;2023-06-14T14:39:38;5.63;;;3.33;;
80926;SDS011;70385;44.538;18.532;2023-06-14T14:42:06;6.30;;;4.18;;
80926;SDS011;70385;44.538;18.532;2023-06-14T14:44:33;12.30;;;5.10;;
80926;SDS011;70385;44.538;18.532;2023-06-14T14:46:59;7.55;;;4.82;;
80926;SDS011;70385;44.538;18.532;2023-06-14T14:49:27;7.25;;;4.70;;
80926;SDS011;70385;44.538;18.532;2023-06-14T14:51:54;9.52;;;4.25;;